sensor_id;sensor_type;location;lat;lon;timestamp;P1;durP1;ratioP1;P2;durP2;ratioP2
18174;SDS011;9212;50.894;16.714;2023-06-22T00:00:26;13.20;;;9.80;;
18174;SDS011;9212;50.894;16.714;2023-06-22T00:02:53;15.65;;;10.20;;
18174;SDS011;9212;50.894;16.714;2023-06-22T00:05:20;15.63;;;9.43;;
18174;SDS011;9212;50.894;16.714;2023-06-22T00:07:48;12.07;;;9.13;;
18174;SDS011;9212;50.894;16.714;2023-06-22T00:10:16;12.73;;;9.98;;
18174;SDS011;9212;50.894;16.714;2023-06-22T00:12:43;10.65;;;8.90;;
18174;SDS011;9212;50.894;16.714;2023-06-22T00:15:11;12.20;;;9.77;;
18174;SDS011;9212;50.894;16.714;2023-06-22T00:17:38;12.13;;;9.82;;
18174;SDS011;9212;50.894;16.714;2023-06-22T00:20:07;14.40;;;9.55;;
18174;SDS011;9212;50.894;16.714;2023-06-22T00:22:42;14.18;;;9.40;;
18174;SDS011;9212;50.894;16.714;2023-06-22T00:25:10;14.07;;;9.32;;
18174;SDS011;9212;50.894;16.714;2023-06-22T00:27:38;13.75;;;9.57;;
18174;SDS011;9212;50.894;16.714;2023-06-22T00:30:06;14.80;;;10.38;;
18174;SDS011;9212;50.894;16.714;2023-06-22T00:32:33;11.90;;;9.43;;
18174;SDS011;9212;50.894;16.714;2023-06-22T00:35:01;13.90;;;10.25;;
18174;SDS011;9212;50.894;16.714;2023-06-22T00:37:28;11.70;;;9.43;;
18174;SDS011;9212;50.894;16.714;2023-06-22T00:39:57;14.52;;;10.05;;
18174;SDS011;9212;50.894;16.714;2023-06-22T00:42:25;17.00;;;10.88;;
18174;SDS011;9212;50.894;16.714;2023-06-22T00:44:54;14.35;;;10.27;;
18174;SDS011;9212;50.894;16.714;2023-06-22T00:47:21;16.90;;;10.35;;
18174;SDS011;9212;50.894;16.714;2023-06-22T00:49:49;12.13;;;9.95;;
18174;SDS011;9212;50.894;16.714;2023-06-22T00:52:17;14.68;;;9.63;;
18174;SDS011;9212;50.894;16.714;2023-06-22T00:54:46;13.57;;;9.95;;
18174;SDS011;9212;50.894;16.714;2023-06-22T00:57:14;16.67;;;11.23;;
18174;SDS011;9212;50.894;16.714;2023-06-22T00:59:42;16.75;;;10.38;;
18174;SDS011;9212;50.894;16.714;2023-06-22T01:02:11;13.40;;;10.15;;
18174;SDS011;9212;50.894;16.714;2023-06-22T01:04:38;12.15;;;10.45;;
18174;SDS011;9212;50.894;16.714;2023-06-22T01:07:08;15.05;;;10.55;;
18174;SDS011;9212;50.894;16.714;2023-06-22T01:09:40;13.65;;;10.02;;
18174;SDS011;9212;50.894;16.714;2023-06-22T01:12:12;13.23;;;10.20;;
18174;SDS011;9212;50.894;16.714;2023-06-22T01:14:41;13.90;;;10.02;;
18174;SDS011;9212;50.894;16.714;2023-06-22T01:17:10;12.98;;;10.05;;
18174;SDS011;9212;50.894;16.714;2023-06-22T01:19:43;13.45;;;10.05;;
18174;SDS011;9212;50.894;16.714;2023-06-22T01:22:12;13.27;;;10.27;;
18174;SDS011;9212;50.894;16.714;2023-06-22T01:24:41;13.27;;;9.52;;
18174;SDS011;9212;50.894;16.714;2023-06-22T01:27:14;14.18;;;10.23;;
18174;SDS011;9212;50.894;16.714;2023-06-22T01:29:48;12.85;;;9.98;;
18174;SDS011;9212;50.894;16.714;2023-06-22T01:32:17;13.43;;;10.02;;
18174;SDS011;9212;50.894;16.714;2023-06-22T01:34:44;16.55;;;10.50;;
18174;SDS011;9212;50.894;16.714;2023-06-22T01:37:13;14.68;;;10.68;;
18174;SDS011;9212;50.894;16.714;2023-06-22T01:39:40;13.05;;;10.02;;
18174;SDS011;9212;50.894;16.714;2023-06-22T01:42:08;12.77;;;10.32;;
18174;SDS011;9212;50.894;16.714;2023-06-22T01:44:35;14.75;;;10.30;;
18174;SDS011;9212;50.894;16.714;2023-06-22T01:47:05;22.13;;;11.10;;
18174;SDS011;9212;50.894;16.714;2023-06-22T01:49:32;18.25;;;10.57;;
18174;SDS011;9212;50.894;16.714;2023-06-22T01:51:59;15.38;;;10.75;;
18174;SDS011;9212;50.894;16.714;2023-06-22T01:54:27;15.45;;;10.48;;
18174;SDS011;9212;50.894;16.714;2023-06-22T01:56:54;12.52;;;9.48;;
18174;SDS011;9212;50.894;16.714;2023-06-22T01:59:23;14.18;;;10.35;;
18174;SDS011;9212;50.894;16.714;2023-06-22T02:01:54;15.00;;;10.77;;
18174;SDS011;9212;50.894;16.714;2023-06-22T02:04:24;14.20;;;11.13;;
18174;SDS011;9212;50.894;16.714;2023-06-22T02:06:55;15.60;;;10.73;;
18174;SDS011;9212;50.894;16.714;2023-06-22T02:09:23;15.10;;;11.30;;
18174;SDS011;9212;50.894;16.714;2023-06-22T02:11:52;14.77;;;10.65;;
18174;SDS011;9212;50.894;16.714;2023-06-22T02:14:21;13.57;;;10.30;;
18174;SDS011;9212;50.894;16.714;2023-06-22T02:16:48;16.40;;;11.27;;
18174;SDS011;9212;50.894;16.714;2023-06-22T02:19:16;14.05;;;11.55;;
18174;SDS011;9212;50.894;16.714;2023-06-22T02:21:45;13.75;;;10.38;;
18174;SDS011;9212;50.894;16.714;2023-06-22T02:24:12;13.38;;;10.18;;
18174;SDS011;9212;50.894;16.714;2023-06-22T02:26:39;17.35;;;10.45;;
18174;SDS011;9212;50.894;16.714;2023-06-22T02:29:07;16.80;;;11.20;;
18174;SDS011;9212;50.894;16.714;2023-06-22T02:31:34;15.63;;;10.27;;
18174;SDS011;9212;50.894;16.714;2023-06-22T02:34:02;13.25;;;11.25;;
18174;SDS011;9212;50.894;16.714;2023-06-22T02:36:29;16.23;;;11.57;;
18174;SDS011;9212;50.894;16.714;2023-06-22T02:38:59;14.77;;;10.43;;
18174;SDS011;9212;50.894;16.714;2023-06-22T02:41:28;17.48;;;10.75;;
18174;SDS011;9212;50.894;16.714;2023-06-22T02:43:56;17.83;;;11.20;;
18174;SDS011;9212;50.894;16.714;2023-06-22T02:46:23;14.30;;;10.90;;
18174;SDS011;9212;50.894;16.714;2023-06-22T02:48:50;16.80;;;10.35;;
18174;SDS011;9212;50.894;16.714;2023-06-22T02:51:17;16.42;;;10.27;;
18174;SDS011;9212;50.894;16.714;2023-06-22T02:53:45;13.65;;;9.90;;
18174;SDS011;9212;50.894;16.714;2023-06-22T02:56:14;14.30;;;10.05;;
18174;SDS011;9212;50.894;16.714;2023-06-22T02:58:42;16.98;;;10.30;;
18174;SDS011;9212;50.894;16.714;2023-06-22T03:01:09;15.80;;;10.35;;
18174;SDS011;9212;50.894;16.714;2023-06-22T03:03:38;21.02;;;10.80;;
18174;SDS011;9212;50.894;16.714;2023-06-22T03:06:05;14.38;;;10.30;;
18174;SDS011;9212;50.894;16.714;2023-06-22T03:08:32;13.32;;;10.20;;
18174;SDS011;9212;50.894;16.714;2023-06-22T03:11:00;14.88;;;9.98;;
18174;SDS011;9212;50.894;16.714;2023-06-22T03:13:28;13.95;;;10.43;;
18174;SDS011;9212;50.894;16.714;2023-06-22T03:15:55;16.63;;;11.02;;
18174;SDS011;9212;50.894;16.714;2023-06-22T03:18:22;17.05;;;10.52;;
18174;SDS011;9212;50.894;16.714;2023-06-22T03:20:50;17.70;;;10.80;;
18174;SDS011;9212;50.894;16.714;2023-06-22T03:23:17;14.13;;;10.70;;
18174;SDS011;9212;50.894;16.714;2023-06-22T03:25:45;13.15;;;9.75;;
18174;SDS011;9212;50.894;16.714;2023-06-22T03:28:12;18.10;;;10.73;;
18174;SDS011;9212;50.894;16.714;2023-06-22T03:30:40;15.70;;;11.02;;
18174;SDS011;9212;50.894;16.714;2023-06-22T03:33:08;19.13;;;11.05;;
18174;SDS011;9212;50.894;16.714;2023-06-22T03:35:35;14.82;;;11.00;;
18174;SDS011;9212;50.894;16.714;2023-06-22T03:38:02;16.70;;;11.38;;
18174;SDS011;9212;50.894;16.714;2023-06-22T03:40:29;16.52;;;10.57;;
18174;SDS011;9212;50.894;16.714;2023-06-22T03:42:57;17.58;;;11.38;;
18174;SDS011;9212;50.894;16.714;2023-06-22T03:45:24;15.88;;;11.55;;
18174;SDS011;9212;50.894;16.714;2023-06-22T03:47:52;15.60;;;11.02;;
18174;SDS011;9212;50.894;16.714;2023-06-22T03:50:20;16.00;;;11.30;;
18174;SDS011;9212;50.894;16.714;2023-06-22T03:52:47;18.88;;;11.38;;
18174;SDS011;9212;50.894;16.714;2023-06-22T03:55:16;15.93;;;11.98;;
18174;SDS011;9212;50.894;16.714;2023-06-22T03:57:44;14.85;;;10.48;;
18174;SDS011;9212;50.894;16.714;2023-06-22T04:00:11;14.10;;;10.02;;
18174;SDS011;9212;50.894;16.714;2023-06-22T04:02:40;14.35;;;10.85;;
18174;SDS011;9212;50.894;16.714;2023-06-22T04:05:09;16.83;;;11.20;;
18174;SDS011;9212;50.894;16.714;2023-06-22T04:07:36;15.02;;;10.57;;
18174;SDS011;9212;50.894;16.714;2023-06-22T04:10:04;16.98;;;10.90;;
18174;SDS011;9212;50.894;16.714;2023-06-22T04:12:31;15.75;;;11.13;;
18174;SDS011;9212;50.894;16.714;2023-06-22T04:14:58;22.30;;;11.73;;
18174;SDS011;9212;50.894;16.714;2023-06-22T04:17:25;16.40;;;11.50;;
18174;SDS011;9212;50.894;16.714;2023-06-22T04:19:52;15.90;;;10.00;;
18174;SDS011;9212;50.894;16.714;2023-06-22T04:22:21;12.27;;;9.43;;
18174;SDS011;9212;50.894;16.714;2023-06-22T04:24:48;14.00;;;9.20;;
18174;SDS011;9212;50.894;16.714;2023-06-22T04:27:16;13.02;;;9.25;;
18174;SDS011;9212;50.894;16.714;2023-06-22T04:29:44;12.90;;;9.20;;
18174;SDS011;9212;50.894;16.714;2023-06-22T04:32:16;11.73;;;8.80;;
18174;SDS011;9212;50.894;16.714;2023-06-22T04:34:43;11.93;;;8.10;;
18174;SDS011;9212;50.894;16.714;2023-06-22T04:37:10;20.83;;;9.98;;
18174;SDS011;9212;50.894;16.714;2023-06-22T04:39:42;12.02;;;9.25;;
18174;SDS011;9212;50.894;16.714;2023-06-22T04:42:09;11.07;;;8.57;;
18174;SDS011;9212;50.894;16.714;2023-06-22T04:44:36;11.93;;;7.63;;
18174;SDS011;9212;50.894;16.714;2023-06-22T04:47:05;8.77;;;7.75;;
18174;SDS011;9212;50.894;16.714;2023-06-22T04:49:33;9.60;;;7.70;;
18174;SDS011;9212;50.894;16.714;2023-06-22T04:52:02;15.20;;;8.13;;
18174;SDS011;9212;50.894;16.714;2023-06-22T04:54:30;11.68;;;8.45;;
18174;SDS011;9212;50.894;16.714;2023-06-22T04:56:59;10.50;;;7.88;;
18174;SDS011;9212;50.894;16.714;2023-06-22T04:59:26;9.25;;;7.57;;
18174;SDS011;9212;50.894;16.714;2023-06-22T05:01:54;9.48;;;7.25;;
18174;SDS011;9212;50.894;16.714;2023-06-22T05:04:22;9.65;;;7.80;;
18174;SDS011;9212;50.894;16.714;2023-06-22T05:06:49;10.05;;;8.13;;
18174;SDS011;9212;50.894;16.714;2023-06-22T05:09:16;11.88;;;7.68;;
18174;SDS011;9212;50.894;16.714;2023-06-22T05:11:44;10.90;;;8.65;;
18174;SDS011;9212;50.894;16.714;2023-06-22T05:14:13;12.35;;;8.43;;
18174;SDS011;9212;50.894;16.714;2023-06-22T05:16:40;11.20;;;8.25;;
18174;SDS011;9212;50.894;16.714;2023-06-22T05:19:08;11.93;;;8.57;;
18174;SDS011;9212;50.894;16.714;2023-06-22T05:21:35;9.48;;;8.30;;
18174;SDS011;9212;50.894;16.714;2023-06-22T05:24:03;12.93;;;8.95;;
18174;SDS011;9212;50.894;16.714;2023-06-22T05:26:31;14.35;;;9.18;;
18174;SDS011;9212;50.894;16.714;2023-06-22T05:28:58;10.40;;;8.23;;
18174;SDS011;9212;50.894;16.714;2023-06-22T05:31:27;12.82;;;8.73;;
18174;SDS011;9212;50.894;16.714;2023-06-22T05:33:55;12.35;;;9.32;;
18174;SDS011;9212;50.894;16.714;2023-06-22T05:36:22;10.32;;;8.07;;
18174;SDS011;9212;50.894;16.714;2023-06-22T05:38:51;14.50;;;9.88;;
18174;SDS011;9212;50.894;16.714;2023-06-22T05:41:18;12.60;;;9.13;;
18174;SDS011;9212;50.894;16.714;2023-06-22T05:43:45;13.68;;;10.23;;
18174;SDS011;9212;50.894;16.714;2023-06-22T05:46:13;10.35;;;8.30;;
18174;SDS011;9212;50.894;16.714;2023-06-22T05:48:41;12.13;;;8.90;;
18174;SDS011;9212;50.894;16.714;2023-06-22T05:51:09;13.23;;;10.48;;
18174;SDS011;9212;50.894;16.714;2023-06-22T05:53:36;11.55;;;8.95;;
18174;SDS011;9212;50.894;16.714;2023-06-22T05:56:03;13.60;;;10.30;;
18174;SDS011;9212;50.894;16.714;2023-06-22T05:58:30;12.45;;;8.88;;
18174;SDS011;9212;50.894;16.714;2023-06-22T06:00:57;14.50;;;10.07;;
18174;SDS011;9212;50.894;16.714;2023-06-22T06:03:25;13.15;;;9.38;;
18174;SDS011;9212;50.894;16.714;2023-06-22T06:05:55;11.98;;;9.05;;
18174;SDS011;9212;50.894;16.714;2023-06-22T06:08:22;11.98;;;10.02;;
18174;SDS011;9212;50.894;16.714;2023-06-22T06:10:49;12.07;;;10.80;;
18174;SDS011;9212;50.894;16.714;2023-06-22T06:13:18;12.63;;;10.55;;
18174;SDS011;9212;50.894;16.714;2023-06-22T06:15:45;12.75;;;10.18;;
18174;SDS011;9212;50.894;16.714;2023-06-22T06:18:12;13.85;;;10.50;;
18174;SDS011;9212;50.894;16.714;2023-06-22T06:20:40;13.02;;;10.02;;
18174;SDS011;9212;50.894;16.714;2023-06-22T06:23:08;15.77;;;11.20;;
18174;SDS011;9212;50.894;16.714;2023-06-22T06:25:36;14.13;;;10.95;;
18174;SDS011;9212;50.894;16.714;2023-06-22T06:28:03;15.98;;;12.80;;
18174;SDS011;9212;50.894;16.714;2023-06-22T06:30:30;17.15;;;12.80;;
18174;SDS011;9212;50.894;16.714;2023-06-22T06:32:57;15.55;;;11.93;;
18174;SDS011;9212;50.894;16.714;2023-06-22T06:35:25;17.25;;;12.20;;
18174;SDS011;9212;50.894;16.714;2023-06-22T06:37:52;16.23;;;12.35;;
18174;SDS011;9212;50.894;16.714;2023-06-22T06:40:21;14.10;;;11.60;;
18174;SDS011;9212;50.894;16.714;2023-06-22T06:42:48;15.05;;;12.13;;
18174;SDS011;9212;50.894;16.714;2023-06-22T06:45:16;15.52;;;13.18;;
18174;SDS011;9212;50.894;16.714;2023-06-22T06:47:45;14.93;;;12.20;;
18174;SDS011;9212;50.894;16.714;2023-06-22T06:50:12;16.33;;;12.23;;
18174;SDS011;9212;50.894;16.714;2023-06-22T06:52:39;18.70;;;13.13;;
18174;SDS011;9212;50.894;16.714;2023-06-22T06:55:08;16.15;;;13.05;;
18174;SDS011;9212;50.894;16.714;2023-06-22T06:57:38;15.93;;;13.43;;
18174;SDS011;9212;50.894;16.714;2023-06-22T07:00:06;16.40;;;12.90;;
18174;SDS011;9212;50.894;16.714;2023-06-22T07:02:37;15.77;;;13.13;;
18174;SDS011;9212;50.894;16.714;2023-06-22T07:05:05;19.85;;;13.85;;
18174;SDS011;9212;50.894;16.714;2023-06-22T07:07:33;15.75;;;13.02;;
18174;SDS011;9212;50.894;16.714;2023-06-22T07:10:00;18.38;;;14.55;;
18174;SDS011;9212;50.894;16.714;2023-06-22T07:12:28;22.05;;;15.07;;
18174;SDS011;9212;50.894;16.714;2023-06-22T07:14:57;21.30;;;15.65;;
18174;SDS011;9212;50.894;16.714;2023-06-22T07:17:27;18.38;;;14.52;;
18174;SDS011;9212;50.894;16.714;2023-06-22T07:19:54;20.73;;;15.45;;
18174;SDS011;9212;50.894;16.714;2023-06-22T07:22:21;19.30;;;14.27;;
18174;SDS011;9212;50.894;16.714;2023-06-22T07:24:49;21.83;;;15.27;;
18174;SDS011;9212;50.894;16.714;2023-06-22T07:27:16;17.77;;;13.45;;
18174;SDS011;9212;50.894;16.714;2023-06-22T07:29:44;18.98;;;14.35;;
18174;SDS011;9212;50.894;16.714;2023-06-22T07:32:13;19.90;;;14.20;;
18174;SDS011;9212;50.894;16.714;2023-06-22T07:34:40;18.30;;;14.70;;
18174;SDS011;9212;50.894;16.714;2023-06-22T07:37:08;17.10;;;12.82;;
18174;SDS011;9212;50.894;16.714;2023-06-22T07:39:36;18.63;;;13.13;;
18174;SDS011;9212;50.894;16.714;2023-06-22T07:42:03;19.98;;;14.27;;
18174;SDS011;9212;50.894;16.714;2023-06-22T07:44:30;15.77;;;12.75;;
18174;SDS011;9212;50.894;16.714;2023-06-22T07:46:58;13.68;;;10.38;;
18174;SDS011;9212;50.894;16.714;2023-06-22T07:49:27;17.85;;;12.40;;
18174;SDS011;9212;50.894;16.714;2023-06-22T07:51:55;16.92;;;12.88;;
18174;SDS011;9212;50.894;16.714;2023-06-22T07:54:22;20.55;;;12.70;;
18174;SDS011;9212;50.894;16.714;2023-06-22T07:56:49;17.38;;;12.25;;
18174;SDS011;9212;50.894;16.714;2023-06-22T07:59:18;17.45;;;13.00;;
18174;SDS011;9212;50.894;16.714;2023-06-22T08:01:45;18.80;;;13.52;;
18174;SDS011;9212;50.894;16.714;2023-06-22T08:04:14;15.30;;;12.77;;
18174;SDS011;9212;50.894;16.714;2023-06-22T08:06:42;17.17;;;12.55;;
18174;SDS011;9212;50.894;16.714;2023-06-22T08:09:10;15.65;;;11.80;;
18174;SDS011;9212;50.894;16.714;2023-06-22T08:11:37;16.55;;;11.68;;
18174;SDS011;9212;50.894;16.714;2023-06-22T08:14:05;14.50;;;10.30;;
18174;SDS011;9212;50.894;16.714;2023-06-22T08:16:32;12.50;;;10.75;;
18174;SDS011;9212;50.894;16.714;2023-06-22T08:18:59;16.05;;;12.63;;
18174;SDS011;9212;50.894;16.714;2023-06-22T08:21:26;13.80;;;11.52;;
18174;SDS011;9212;50.894;16.714;2023-06-22T08:23:55;18.27;;;11.85;;
18174;SDS011;9212;50.894;16.714;2023-06-22T08:26:22;14.48;;;11.32;;
18174;SDS011;9212;50.894;16.714;2023-06-22T08:28:50;12.85;;;10.00;;
18174;SDS011;9212;50.894;16.714;2023-06-22T08:31:17;12.15;;;9.85;;
18174;SDS011;9212;50.894;16.714;2023-06-22T08:33:45;13.68;;;11.05;;
18174;SDS011;9212;50.894;16.714;2023-06-22T08:36:12;14.45;;;10.88;;
18174;SDS011;9212;50.894;16.714;2023-06-22T08:38:39;11.43;;;9.95;;
18174;SDS011;9212;50.894;16.714;2023-06-22T08:41:08;12.95;;;10.05;;
18174;SDS011;9212;50.894;16.714;2023-06-22T08:43:35;13.55;;;9.80;;
18174;SDS011;9212;50.894;16.714;2023-06-22T08:46:02;10.88;;;9.00;;
18174;SDS011;9212;50.894;16.714;2023-06-22T08:48:29;13.52;;;10.38;;
18174;SDS011;9212;50.894;16.714;2023-06-22T08:50:56;13.80;;;10.40;;
18174;SDS011;9212;50.894;16.714;2023-06-22T08:53:24;11.90;;;9.32;;
18174;SDS011;9212;50.894;16.714;2023-06-22T08:55:51;12.50;;;9.55;;
18174;SDS011;9212;50.894;16.714;2023-06-22T08:58:20;10.52;;;8.85;;
18174;SDS011;9212;50.894;16.714;2023-06-22T09:00:49;11.00;;;8.93;;
18174;SDS011;9212;50.894;16.714;2023-06-22T09:03:16;10.68;;;8.50;;
18174;SDS011;9212;50.894;16.714;2023-06-22T09:05:45;11.82;;;10.05;;
18174;SDS011;9212;50.894;16.714;2023-06-22T09:08:12;13.43;;;9.30;;
18174;SDS011;9212;50.894;16.714;2023-06-22T09:10:40;13.63;;;10.18;;
18174;SDS011;9212;50.894;16.714;2023-06-22T09:13:07;10.10;;;8.85;;
18174;SDS011;9212;50.894;16.714;2023-06-22T09:15:35;11.85;;;9.55;;
18174;SDS011;9212;50.894;16.714;2023-06-22T09:18:03;11.80;;;8.85;;
18174;SDS011;9212;50.894;16.714;2023-06-22T09:20:30;13.35;;;9.57;;
18174;SDS011;9212;50.894;16.714;2023-06-22T09:22:58;11.70;;;8.98;;
18174;SDS011;9212;50.894;16.714;2023-06-22T09:25:25;14.38;;;8.80;;
18174;SDS011;9212;50.894;16.714;2023-06-22T09:27:52;12.27;;;9.82;;
18174;SDS011;9212;50.894;16.714;2023-06-22T09:30:20;11.57;;;9.63;;
18174;SDS011;9212;50.894;16.714;2023-06-22T09:32:48;11.63;;;8.98;;
18174;SDS011;9212;50.894;16.714;2023-06-22T09:35:16;9.85;;;8.85;;
18174;SDS011;9212;50.894;16.714;2023-06-22T09:37:43;12.35;;;9.20;;
18174;SDS011;9212;50.894;16.714;2023-06-22T09:40:11;13.35;;;9.10;;
18174;SDS011;9212;50.894;16.714;2023-06-22T09:42:41;10.60;;;9.00;;
18174;SDS011;9212;50.894;16.714;2023-06-22T09:45:08;11.65;;;9.40;;
18174;SDS011;9212;50.894;16.714;2023-06-22T09:47:36;10.70;;;9.00;;
18174;SDS011;9212;50.894;16.714;2023-06-22T09:50:05;14.13;;;8.70;;
18174;SDS011;9212;50.894;16.714;2023-06-22T09:52:33;11.82;;;8.15;;
18174;SDS011;9212;50.894;16.714;2023-06-22T09:55:00;11.70;;;9.02;;
18174;SDS011;9212;50.894;16.714;2023-06-22T09:57:28;15.23;;;9.10;;
18174;SDS011;9212;50.894;16.714;2023-06-22T09:59:55;12.85;;;8.57;;
18174;SDS011;9212;50.894;16.714;2023-06-22T10:02:23;10.20;;;8.70;;
18174;SDS011;9212;50.894;16.714;2023-06-22T10:04:50;12.27;;;8.52;;
18174;SDS011;9212;50.894;16.714;2023-06-22T10:07:18;11.73;;;7.82;;
18174;SDS011;9212;50.894;16.714;2023-06-22T10:09:46;11.77;;;8.30;;
18174;SDS011;9212;50.894;16.714;2023-06-22T10:12:13;11.63;;;8.25;;
18174;SDS011;9212;50.894;16.714;2023-06-22T10:14:40;12.68;;;8.35;;
18174;SDS011;9212;50.894;16.714;2023-06-22T10:17:07;9.85;;;7.38;;
18174;SDS011;9212;50.894;16.714;2023-06-22T10:19:34;9.88;;;7.50;;
18174;SDS011;9212;50.894;16.714;2023-06-22T10:22:03;8.57;;;7.68;;
18174;SDS011;9212;50.894;16.714;2023-06-22T10:24:31;8.98;;;7.85;;
18174;SDS011;9212;50.894;16.714;2023-06-22T10:26:58;11.80;;;6.93;;
18174;SDS011;9212;50.894;16.714;2023-06-22T10:29:26;8.57;;;7.57;;
18174;SDS011;9212;50.894;16.714;2023-06-22T10:31:53;9.30;;;7.60;;
18174;SDS011;9212;50.894;16.714;2023-06-22T10:34:20;11.65;;;8.15;;
18174;SDS011;9212;50.894;16.714;2023-06-22T10:36:48;8.75;;;7.68;;
18174;SDS011;9212;50.894;16.714;2023-06-22T10:39:15;9.18;;;7.90;;
18174;SDS011;9212;50.894;16.714;2023-06-22T10:41:44;8.70;;;7.72;;
18174;SDS011;9212;50.894;16.714;2023-06-22T10:44:11;9.25;;;7.38;;
18174;SDS011;9212;50.894;16.714;2023-06-22T10:46:39;8.10;;;7.30;;
18174;SDS011;9212;50.894;16.714;2023-06-22T10:49:06;10.45;;;6.82;;
18174;SDS011;9212;50.894;16.714;2023-06-22T10:51:33;8.60;;;7.43;;
18174;SDS011;9212;50.894;16.714;2023-06-22T10:54:00;8.52;;;6.80;;
18174;SDS011;9212;50.894;16.714;2023-06-22T10:56:29;10.25;;;7.72;;
18174;SDS011;9212;50.894;16.714;2023-06-22T10:59:00;7.75;;;6.95;;
18174;SDS011;9212;50.894;16.714;2023-06-22T11:01:27;8.98;;;6.80;;
18174;SDS011;9212;50.894;16.714;2023-06-22T11:03:56;10.63;;;7.60;;
18174;SDS011;9212;50.894;16.714;2023-06-22T11:06:23;9.15;;;7.13;;
18174;SDS011;9212;50.894;16.714;2023-06-22T11:08:50;9.95;;;7.30;;
18174;SDS011;9212;50.894;16.714;2023-06-22T11:11:18;8.38;;;7.00;;
18174;SDS011;9212;50.894;16.714;2023-06-22T11:13:45;7.70;;;6.43;;
18174;SDS011;9212;50.894;16.714;2023-06-22T11:16:14;7.88;;;6.65;;
18174;SDS011;9212;50.894;16.714;2023-06-22T11:18:41;7.45;;;6.53;;
18174;SDS011;9212;50.894;16.714;2023-06-22T11:21:08;11.45;;;6.90;;
18174;SDS011;9212;50.894;16.714;2023-06-22T11:23:35;9.43;;;6.80;;
18174;SDS011;9212;50.894;16.714;2023-06-22T11:26:02;7.80;;;7.03;;
18174;SDS011;9212;50.894;16.714;2023-06-22T11:28:30;7.03;;;6.32;;
18174;SDS011;9212;50.894;16.714;2023-06-22T11:30:57;7.82;;;6.82;;
18174;SDS011;9212;50.894;16.714;2023-06-22T11:33:26;7.32;;;6.63;;
18174;SDS011;9212;50.894;16.714;2023-06-22T11:35:54;7.80;;;6.38;;
18174;SDS011;9212;50.894;16.714;2023-06-22T11:38:22;7.82;;;6.60;;
18174;SDS011;9212;50.894;16.714;2023-06-22T11:40:49;7.88;;;6.80;;
18174;SDS011;9212;50.894;16.714;2023-06-22T11:43:16;8.13;;;6.82;;
18174;SDS011;9212;50.894;16.714;2023-06-22T11:45:43;9.13;;;6.90;;
18174;SDS011;9212;50.894;16.714;2023-06-22T11:48:11;8.73;;;6.60;;
18174;SDS011;9212;50.894;16.714;2023-06-22T11:50:39;6.90;;;6.25;;
18174;SDS011;9212;50.894;16.714;2023-06-22T11:53:07;7.22;;;6.53;;
18174;SDS011;9212;50.894;16.714;2023-06-22T11:55:34;8.57;;;7.05;;
18174;SDS011;9212;50.894;16.714;2023-06-22T11:58:01;7.90;;;7.10;;
18174;SDS011;9212;50.894;16.714;2023-06-22T12:00:30;7.88;;;6.38;;
18174;SDS011;9212;50.894;16.714;2023-06-22T12:02:57;7.97;;;6.30;;
18174;SDS011;9212;50.894;16.714;2023-06-22T12:05:25;8.07;;;6.50;;
18174;SDS011;9212;50.894;16.714;2023-06-22T12:07:54;7.30;;;6.40;;
18174;SDS011;9212;50.894;16.714;2023-06-22T12:10:21;7.78;;;6.57;;
18174;SDS011;9212;50.894;16.714;2023-06-22T12:12:49;7.93;;;6.35;;
18174;SDS011;9212;50.894;16.714;2023-06-22T12:15:17;7.70;;;6.72;;
18174;SDS011;9212;50.894;16.714;2023-06-22T12:17:44;7.85;;;6.75;;
18174;SDS011;9212;50.894;16.714;2023-06-22T12:20:13;9.05;;;6.88;;
18174;SDS011;9212;50.894;16.714;2023-06-22T12:22:40;10.75;;;6.78;;
18174;SDS011;9212;50.894;16.714;2023-06-22T12:25:09;7.60;;;6.82;;
18174;SDS011;9212;50.894;16.714;2023-06-22T12:27:36;7.97;;;6.50;;
18174;SDS011;9212;50.894;16.714;2023-06-22T12:30:04;8.88;;;6.45;;
18174;SDS011;9212;50.894;16.714;2023-06-22T12:32:32;10.18;;;6.65;;
18174;SDS011;9212;50.894;16.714;2023-06-22T12:34:59;8.90;;;6.97;;
18174;SDS011;9212;50.894;16.714;2023-06-22T12:37:26;8.68;;;6.90;;
18174;SDS011;9212;50.894;16.714;2023-06-22T12:39:54;8.80;;;6.28;;
18174;SDS011;9212;50.894;16.714;2023-06-22T12:42:23;6.95;;;6.22;;
18174;SDS011;9212;50.894;16.714;2023-06-22T12:44:51;6.68;;;5.95;;
18174;SDS011;9212;50.894;16.714;2023-06-22T12:47:18;8.25;;;6.80;;
18174;SDS011;9212;50.894;16.714;2023-06-22T12:49:46;7.10;;;6.40;;
18174;SDS011;9212;50.894;16.714;2023-06-22T12:52:13;7.63;;;6.30;;
18174;SDS011;9212;50.894;16.714;2023-06-22T12:54:42;7.80;;;6.82;;
18174;SDS011;9212;50.894;16.714;2023-06-22T12:57:09;8.15;;;6.72;;
18174;SDS011;9212;50.894;16.714;2023-06-22T12:59:38;7.43;;;6.38;;
18174;SDS011;9212;50.894;16.714;2023-06-22T13:02:05;6.88;;;6.18;;
18174;SDS011;9212;50.894;16.714;2023-06-22T13:04:32;8.60;;;6.68;;
18174;SDS011;9212;50.894;16.714;2023-06-22T13:07:00;8.52;;;6.90;;
18174;SDS011;9212;50.894;16.714;2023-06-22T13:09:27;7.95;;;7.13;;
18174;SDS011;9212;50.894;16.714;2023-06-22T13:11:54;7.85;;;6.30;;
18174;SDS011;9212;50.894;16.714;2023-06-22T13:14:21;8.48;;;6.22;;
18174;SDS011;9212;50.894;16.714;2023-06-22T13:16:50;7.07;;;6.38;;
18174;SDS011;9212;50.894;16.714;2023-06-22T13:19:18;7.68;;;5.97;;
18174;SDS011;9212;50.894;16.714;2023-06-22T13:21:45;7.32;;;6.40;;
18174;SDS011;9212;50.894;16.714;2023-06-22T13:24:12;8.48;;;6.28;;
18174;SDS011;9212;50.894;16.714;2023-06-22T13:26:39;6.55;;;5.60;;
18174;SDS011;9212;50.894;16.714;2023-06-22T13:29:07;8.10;;;5.55;;
18174;SDS011;9212;50.894;16.714;2023-06-22T13:31:34;8.15;;;5.53;;
18174;SDS011;9212;50.894;16.714;2023-06-22T13:34:03;9.15;;;6.03;;
18174;SDS011;9212;50.894;16.714;2023-06-22T13:36:30;7.57;;;6.82;;
18174;SDS011;9212;50.894;16.714;2023-06-22T13:38:57;6.97;;;5.75;;
18174;SDS011;9212;50.894;16.714;2023-06-22T13:41:25;7.55;;;6.25;;
18174;SDS011;9212;50.894;16.714;2023-06-22T13:43:52;8.05;;;6.15;;
18174;SDS011;9212;50.894;16.714;2023-06-22T13:46:19;7.05;;;6.10;;
18174;SDS011;9212;50.894;16.714;2023-06-22T13:48:46;7.10;;;6.40;;
18174;SDS011;9212;50.894;16.714;2023-06-22T13:51:15;6.22;;;5.72;;
18174;SDS011;9212;50.894;16.714;2023-06-22T13:53:42;7.40;;;5.57;;
18174;SDS011;9212;50.894;16.714;2023-06-22T13:56:09;6.28;;;5.68;;
18174;SDS011;9212;50.894;16.714;2023-06-22T13:58:37;6.13;;;5.53;;
18174;SDS011;9212;50.894;16.714;2023-06-22T14:01:04;10.45;;;5.70;;
18174;SDS011;9212;50.894;16.714;2023-06-22T14:03:31;6.55;;;5.70;;
18174;SDS011;9212;50.894;16.714;2023-06-22T14:05:58;6.75;;;5.47;;
18174;SDS011;9212;50.894;16.714;2023-06-22T14:08:27;7.43;;;5.90;;
18174;SDS011;9212;50.894;16.714;2023-06-22T14:10:54;6.60;;;5.90;;
18174;SDS011;9212;50.894;16.714;2023-06-22T14:13:22;7.22;;;5.85;;
18174;SDS011;9212;50.894;16.714;2023-06-22T14:15:49;9.30;;;6.18;;
18174;SDS011;9212;50.894;16.714;2023-06-22T14:18:17;8.07;;;6.20;;
18174;SDS011;9212;50.894;16.714;2023-06-22T14:20:44;10.05;;;6.20;;
18174;SDS011;9212;50.894;16.714;2023-06-22T14:23:12;7.10;;;5.90;;
18174;SDS011;9212;50.894;16.714;2023-06-22T14:25:41;6.53;;;5.82;;
18174;SDS011;9212;50.894;16.714;2023-06-22T14:28:08;9.63;;;5.95;;
18174;SDS011;9212;50.894;16.714;2023-06-22T14:30:36;6.55;;;5.80;;
18174;SDS011;9212;50.894;16.714;2023-06-22T14:33:03;8.25;;;5.82;;
18174;SDS011;9212;50.894;16.714;2023-06-22T14:35:30;8.10;;;5.50;;